createdAt,value
2019-06-20T00:00:44.538Z,23.30
2019-06-20T00:03:13.765Z,23.20
2019-06-20T00:05:42.988Z,23.20
2019-06-20T00:08:12.343Z,23.20
2019-06-20T00:10:42.437Z,23.20
2019-06-20T00:13:11.617Z,23.30
2019-06-20T00:15:40.900Z,23.20
2019-06-20T00:18:10.077Z,23.20
2019-06-20T00:20:39.239Z,23.10
2019-06-20T00:23:08.404Z,23.00
2019-06-20T00:25:37.631Z,23.00
2019-06-20T00:28:06.770Z,23.00
2019-06-20T00:30:35.874Z,23.00
2019-06-20T00:33:05.012Z,23.00
2019-06-20T00:35:34.095Z,23.00
2019-06-20T00:38:03.347Z,23.00
2019-06-20T00:40:32.428Z,22.80
2019-06-20T00:43:16.256Z,22.90
2019-06-20T00:45:32.360Z,22.80
2019-06-20T00:48:01.645Z,22.80
2019-06-20T00:50:30.808Z,22.80
2019-06-20T00:53:00.031Z,22.60
2019-06-20T00:55:29.343Z,22.50
2019-06-20T00:57:58.560Z,22.60
2019-06-20T01:00:28.701Z,22.60
2019-06-20T01:02:57.847Z,22.50
2019-06-20T01:05:27.114Z,22.50
2019-06-20T01:07:56.280Z,22.50
2019-06-20T01:10:25.427Z,22.50
2019-06-20T01:12:54.585Z,22.50
2019-06-20T01:15:23.881Z,22.60
2019-06-20T01:17:53.092Z,22.40
2019-06-20T01:20:22.480Z,22.30
2019-06-20T01:22:51.577Z,22.10
2019-06-20T01:25:26.620Z,22.20
2019-06-20T01:27:55.735Z,22.50
2019-06-20T01:30:24.973Z,22.60
2019-06-20T01:32:54.202Z,22.50
2019-06-20T01:35:23.369Z,22.50
2019-06-20T01:37:52.539Z,22.60
2019-06-20T01:40:21.673Z,22.50
2019-06-20T01:42:50.825Z,22.50
2019-06-20T01:45:20.081Z,22.50
2019-06-20T01:47:49.198Z,22.50
2019-06-20T01:50:18.465Z,22.50
2019-06-20T01:52:47.623Z,22.40
2019-06-20T01:55:16.792Z,22.40
2019-06-20T01:57:45.900Z,22.30
2019-06-20T02:00:20.927Z,22.30
2019-06-20T02:02:50.034Z,22.50
2019-06-20T02:05:19.235Z,22.40
2019-06-20T02:07:48.346Z,22.40
2019-06-20T02:10:17.637Z,22.60
2019-06-20T02:12:46.780Z,22.60
2019-06-20T02:15:16.122Z,22.60
2019-06-20T02:17:45.297Z,22.60
2019-06-20T02:20:33.897Z,22.60
2019-06-20T02:23:03.222Z,22.40
2019-06-20T02:25:32.453Z,22.40
2019-06-20T02:28:01.746Z,22.30
2019-06-20T02:30:30.981Z,22.30
2019-06-20T02:33:00.219Z,22.40
2019-06-20T02:35:29.441Z,22.40
2019-06-20T02:37:58.585Z,22.40
2019-06-20T02:40:28.117Z,22.40
2019-06-20T02:42:57.283Z,22.40
2019-06-20T02:45:26.589Z,22.60
2019-06-20T02:47:55.763Z,22.40
2019-06-20T02:50:26.509Z,22.60
2019-06-20T02:52:55.711Z,22.60
2019-06-20T02:55:24.890Z,22.60
2019-06-20T02:57:54.153Z,22.60
2019-06-20T03:00:38.335Z,22.50
2019-06-20T03:03:07.568Z,22.50
2019-06-20T03:05:36.764Z,22.50
2019-06-20T03:08:06.063Z,22.60
2019-06-20T03:10:35.253Z,22.50
2019-06-20T03:13:04.511Z,22.40
2019-06-20T03:15:33.656Z,22.70
2019-06-20T03:18:02.816Z,22.70
2019-06-20T03:20:32.617Z,22.70
2019-06-20T03:23:01.831Z,22.70
2019-06-20T03:25:31.584Z,22.90
2019-06-20T03:28:01.126Z,22.90
2019-06-20T03:30:30.414Z,22.90
2019-06-20T03:32:59.584Z,23.00
2019-06-20T03:35:28.865Z,23.10
2019-06-20T03:37:57.989Z,23.00
2019-06-20T03:40:27.202Z,22.90
2019-06-20T03:42:56.415Z,23.00
2019-06-20T03:45:25.785Z,23.00
2019-06-20T03:47:54.893Z,23.20
2019-06-20T03:50:26.424Z,23.30
2019-06-20T03:53:01.727Z,23.40
2019-06-20T03:55:32.257Z,23.50
2019-06-20T03:58:02.352Z,23.60
2019-06-20T04:00:33.858Z,23.60
2019-06-20T04:03:03.455Z,23.80
2019-06-20T04:05:32.687Z,23.80
2019-06-20T04:08:01.842Z,24.10
2019-06-20T04:10:31.091Z,24.10
2019-06-20T04:13:00.239Z,24.00
2019-06-20T04:15:29.433Z,24.20
2019-06-20T04:17:58.600Z,24.30
2019-06-20T04:20:27.824Z,24.40
2019-06-20T04:22:56.944Z,24.50
2019-06-20T04:25:26.154Z,24.60
2019-06-20T04:27:55.273Z,24.60
2019-06-20T04:30:24.469Z,24.70
2019-06-20T04:32:53.717Z,24.90
2019-06-20T04:35:22.871Z,24.90
2019-06-20T04:37:51.981Z,24.90
2019-06-20T04:40:21.222Z,24.90
2019-06-20T04:42:50.361Z,25.00
2019-06-20T04:45:34.500Z,25.00
2019-06-20T04:47:54.702Z,24.90
2019-06-20T04:50:23.821Z,24.90
2019-06-20T04:52:53.015Z,24.90
2019-06-20T04:55:22.316Z,24.70
2019-06-20T04:57:51.409Z,24.60
2019-06-20T05:00:20.601Z,24.70
2019-06-20T05:02:49.801Z,24.80
2019-06-20T05:05:19.063Z,24.90
2019-06-20T05:07:48.230Z,24.80
2019-06-20T05:10:17.430Z,24.70
2019-06-20T05:12:46.626Z,24.70
2019-06-20T05:15:15.860Z,24.50
2019-06-20T05:17:44.989Z,24.20
2019-06-20T05:20:14.166Z,24.10
2019-06-20T05:22:43.331Z,24.20
2019-06-20T05:25:12.720Z,24.30
2019-06-20T05:27:41.950Z,24.50
2019-06-20T05:30:12.031Z,24.70
2019-06-20T05:32:41.201Z,24.80
2019-06-20T05:35:10.999Z,24.90
2019-06-20T05:37:40.162Z,25.10
2019-06-20T05:40:09.682Z,25.10
2019-06-20T05:42:38.902Z,25.20
2019-06-20T05:45:08.453Z,25.20
2019-06-20T05:47:37.718Z,25.30
2019-06-20T05:50:09.143Z,25.30
2019-06-20T05:52:38.298Z,25.30
2019-06-20T05:55:08.639Z,25.40
2019-06-20T05:57:37.753Z,25.60
2019-06-20T06:00:10.905Z,25.70
2019-06-20T06:02:40.250Z,25.70
2019-06-20T06:05:09.711Z,25.30
2019-06-20T06:07:38.864Z,25.30
2019-06-20T06:10:09.120Z,25.40
2019-06-20T06:12:38.440Z,25.40
2019-06-20T06:15:08.870Z,25.20
2019-06-20T06:17:38.661Z,25.30
2019-06-20T06:20:09.039Z,25.30
2019-06-20T06:22:38.253Z,25.50
2019-06-20T06:25:08.187Z,25.70
2019-06-20T06:27:37.464Z,26.10
2019-06-20T06:30:07.759Z,26.30
2019-06-20T06:32:40.475Z,26.50
2019-06-20T06:35:07.396Z,26.60
2019-06-20T06:37:36.721Z,26.40
2019-06-20T06:40:10.425Z,26.00
2019-06-20T06:42:39.648Z,25.80
2019-06-20T06:45:10.624Z,25.90
2019-06-20T06:47:39.051Z,26.00
2019-06-20T06:50:11.045Z,26.30
2019-06-20T06:52:40.155Z,26.60
2019-06-20T06:55:09.392Z,26.80
2019-06-20T06:57:38.845Z,27.00
2019-06-20T07:00:12.891Z,27.20
2019-06-20T07:02:44.179Z,27.00
2019-06-20T07:05:13.762Z,27.00
2019-06-20T07:07:42.968Z,26.80
2019-06-20T07:10:12.554Z,26.70
2019-06-20T07:12:41.790Z,26.70
2019-06-20T07:15:11.443Z,26.80
2019-06-20T07:17:41.071Z,26.70
2019-06-20T07:20:15.130Z,26.60
2019-06-20T07:22:42.982Z,26.70
2019-06-20T07:25:12.255Z,26.50
2019-06-20T07:27:41.393Z,26.40
2019-06-20T07:30:11.848Z,26.30
2019-06-20T07:32:40.959Z,26.40
2019-06-20T07:35:10.461Z,26.40
2019-06-20T07:37:39.676Z,26.70
2019-06-20T07:40:09.385Z,27.00
2019-06-20T07:42:38.604Z,27.20
2019-06-20T07:45:11.875Z,27.10
2019-06-20T07:47:41.137Z,27.10
2019-06-20T07:50:11.013Z,27.20
2019-06-20T07:52:40.212Z,27.10
2019-06-20T07:55:09.840Z,27.10
2019-06-20T07:57:39.018Z,27.00
2019-06-20T08:00:09.486Z,27.00
2019-06-20T08:02:38.776Z,27.00
2019-06-20T08:05:09.837Z,27.10
2019-06-20T08:07:38.984Z,27.20
2019-06-20T08:10:13.583Z,27.10
2019-06-20T08:12:42.833Z,27.20
2019-06-20T08:15:15.545Z,27.20
2019-06-20T08:17:44.370Z,27.60
2019-06-20T08:20:15.382Z,27.60
2019-06-20T08:22:44.522Z,27.60
2019-06-20T08:25:14.378Z,27.60
2019-06-20T08:27:53.106Z,27.50
2019-06-20T08:30:25.318Z,27.70
2019-06-20T08:32:57.390Z,27.40
2019-06-20T08:35:27.862Z,27.60
2019-06-20T08:37:59.315Z,27.60
2019-06-20T08:40:31.272Z,27.70
2019-06-20T08:43:02.163Z,27.90
2019-06-20T08:45:34.413Z,28.00
2019-06-20T08:48:04.737Z,28.10
2019-06-20T08:50:34.289Z,28.40
2019-06-20T08:53:03.968Z,28.50
2019-06-20T08:55:33.189Z,28.30
2019-06-20T08:58:03.475Z,28.10
2019-06-20T09:00:34.815Z,28.10
2019-06-20T09:03:05.379Z,28.00
2019-06-20T09:05:34.998Z,27.90
2019-06-20T09:08:05.327Z,28.00
2019-06-20T09:10:37.560Z,28.20
2019-06-20T09:13:07.225Z,28.00
2019-06-20T09:15:37.020Z,28.40
2019-06-20T09:18:07.438Z,29.00
2019-06-20T09:20:37.340Z,29.10
2019-06-20T09:23:06.503Z,29.10
2019-06-20T09:25:36.367Z,28.90
2019-06-20T09:28:06.437Z,28.90
2019-06-20T09:30:36.796Z,29.00
2019-06-20T09:33:06.083Z,28.70
2019-06-20T09:35:35.570Z,28.70
2019-06-20T09:38:05.081Z,28.90
2019-06-20T09:40:34.364Z,29.40
2019-06-20T09:43:03.629Z,29.90
2019-06-20T09:45:34.363Z,30.50
2019-06-20T09:48:02.836Z,30.60
2019-06-20T09:50:32.075Z,30.30
2019-06-20T09:53:01.375Z,29.90
2019-06-20T09:55:30.650Z,29.60
2019-06-20T09:58:00.373Z,29.30
2019-06-20T10:00:30.240Z,29.70
2019-06-20T10:02:59.361Z,29.50
2019-06-20T10:05:28.790Z,29.20
2019-06-20T10:07:58.011Z,28.80
2019-06-20T10:10:52.059Z,28.30
2019-06-20T10:13:21.637Z,27.10
2019-06-20T10:15:51.509Z,25.90
2019-06-20T10:18:20.671Z,25.40
2019-06-20T10:20:51.121Z,25.10
2019-06-20T10:23:20.483Z,24.90
2019-06-20T10:25:49.761Z,24.80
2019-06-20T10:28:20.018Z,24.60
2019-06-20T10:30:49.227Z,24.40
2019-06-20T10:33:18.442Z,24.30
2019-06-20T10:35:48.446Z,24.10
2019-06-20T10:38:17.684Z,23.90
2019-06-20T10:40:47.887Z,23.80
2019-06-20T10:43:17.274Z,23.30
2019-06-20T10:45:47.377Z,22.70
2019-06-20T10:48:16.779Z,22.20
2019-06-20T10:50:45.951Z,21.90
2019-06-20T10:53:15.096Z,21.90
2019-06-20T10:55:44.971Z,22.50
2019-06-20T10:58:14.109Z,23.10
2019-06-20T11:00:44.511Z,23.70
2019-06-20T11:03:13.799Z,23.80
2019-06-20T11:05:43.827Z,23.90
2019-06-20T11:08:13.013Z,24.70
2019-06-20T11:10:43.467Z,25.50
2019-06-20T11:13:13.087Z,26.60
2019-06-20T11:15:42.340Z,27.20
2019-06-20T11:18:11.549Z,27.00
2019-06-20T11:20:41.043Z,27.00
2019-06-20T11:23:11.397Z,27.20
2019-06-20T11:25:41.870Z,27.20
2019-06-20T11:28:11.258Z,27.00
2019-06-20T11:30:53.508Z,27.70
2019-06-20T11:33:12.101Z,29.00
2019-06-20T11:35:41.873Z,30.30
2019-06-20T11:38:11.141Z,31.40
2019-06-20T11:40:41.548Z,32.40
2019-06-20T11:43:10.137Z,32.80
2019-06-20T11:45:40.799Z,33.40
2019-06-20T11:48:10.232Z,33.00
2019-06-20T11:50:42.413Z,32.20
2019-06-20T11:53:11.703Z,31.50
2019-06-20T11:55:41.166Z,30.80
2019-06-20T11:58:10.370Z,30.70
2019-06-20T12:00:39.954Z,31.10
2019-06-20T12:03:09.214Z,31.60
2019-06-20T12:05:44.847Z,32.40
2019-06-20T12:08:19.358Z,33.10
2019-06-20T12:10:50.360Z,33.40
2019-06-20T12:13:20.837Z,32.50
2019-06-20T12:15:50.101Z,31.60
2019-06-20T12:18:19.312Z,31.40
2019-06-20T12:20:50.609Z,31.90
2019-06-20T12:23:19.758Z,32.40
2019-06-20T12:25:48.948Z,33.10
2019-06-20T12:28:18.452Z,33.10
2019-06-20T12:30:48.335Z,34.00
2019-06-20T12:33:17.709Z,34.20
2019-06-20T12:35:46.873Z,34.80
2019-06-20T12:38:15.968Z,34.90
2019-06-20T12:40:46.183Z,35.10
2019-06-20T12:43:15.438Z,35.60
2019-06-20T12:45:44.682Z,35.40
2019-06-20T12:48:13.834Z,35.40
2019-06-20T12:50:43.088Z,35.30
2019-06-20T12:53:12.257Z,35.10
2019-06-20T12:55:42.440Z,35.40
2019-06-20T12:58:10.975Z,35.20
2019-06-20T13:00:41.649Z,35.20
2019-06-20T13:03:10.871Z,35.50
2019-06-20T13:05:41.469Z,35.40
2019-06-20T13:08:13.510Z,35.60
2019-06-20T13:10:41.865Z,36.10
2019-06-20T13:13:11.045Z,36.20
2019-06-20T13:15:40.657Z,35.80
2019-06-20T13:18:09.794Z,34.60
2019-06-20T13:20:40.635Z,34.20
2019-06-20T13:23:10.592Z,34.40
2019-06-20T13:25:40.944Z,33.80
2019-06-20T13:28:10.199Z,33.60
2019-06-20T13:30:40.294Z,34.00
2019-06-20T13:33:10.224Z,34.40
2019-06-20T13:35:41.595Z,34.70
2019-06-20T13:38:10.402Z,35.00
2019-06-20T13:40:41.325Z,34.80
2019-06-20T13:43:10.694Z,34.70
2019-06-20T13:45:41.163Z,35.30
2019-06-20T13:48:10.723Z,35.30
2019-06-20T13:50:40.449Z,35.10
2019-06-20T13:53:10.653Z,34.50
2019-06-20T13:55:41.211Z,34.40
2019-06-20T13:58:10.651Z,33.80
2019-06-20T14:00:42.882Z,33.80
2019-06-20T14:03:10.888Z,33.80
2019-06-20T14:05:41.466Z,33.70
2019-06-20T14:08:10.903Z,33.70
2019-06-20T14:10:40.012Z,33.90
2019-06-20T14:13:18.613Z,34.50
2019-06-20T14:15:42.681Z,34.70
2019-06-20T14:18:10.715Z,34.80
2019-06-20T14:20:39.910Z,35.10
2019-06-20T14:23:09.090Z,35.00
2019-06-20T14:25:38.404Z,34.80
2019-06-20T14:28:07.651Z,35.90
2019-06-20T14:30:36.794Z,35.60
2019-06-20T14:33:05.971Z,35.90
2019-06-20T14:35:35.169Z,36.30
2019-06-20T14:38:04.286Z,35.70
2019-06-20T14:40:33.407Z,35.50
2019-06-20T14:43:02.492Z,35.40
2019-06-20T14:45:31.642Z,35.10
2019-06-20T14:48:00.874Z,34.80
2019-06-20T14:50:30.042Z,35.30
2019-06-20T14:52:59.178Z,35.70
2019-06-20T14:55:28.353Z,33.80
2019-06-20T14:57:59.020Z,32.60
2019-06-20T15:00:29.944Z,32.20
2019-06-20T15:02:59.055Z,31.70
2019-06-20T15:05:28.189Z,31.90
2019-06-20T15:07:57.407Z,32.70
2019-06-20T15:10:26.563Z,32.80
2019-06-20T15:12:56.066Z,32.70
2019-06-20T15:15:25.507Z,32.40
2019-06-20T15:17:56.296Z,32.10
2019-06-20T15:20:25.383Z,31.60
2019-06-20T15:22:54.729Z,32.10
2019-06-20T15:25:24.009Z,32.50
2019-06-20T15:27:55.068Z,33.40
2019-06-20T15:30:24.037Z,34.10
2019-06-20T15:33:01.787Z,34.70
2019-06-20T15:35:24.114Z,34.60
2019-06-20T15:37:53.791Z,34.70
2019-06-20T15:40:23.666Z,34.70
2019-06-20T15:42:53.467Z,35.00
2019-06-20T15:45:23.684Z,34.50
2019-06-20T15:47:52.780Z,34.50
2019-06-20T15:50:22.404Z,34.40
2019-06-20T15:52:51.515Z,34.10
2019-06-20T15:55:20.870Z,34.60
2019-06-20T15:57:53.792Z,34.00
2019-06-20T16:00:21.433Z,33.90
2019-06-20T16:02:50.549Z,33.80
2019-06-20T16:05:19.846Z,34.00
2019-06-20T16:07:48.989Z,33.50
2019-06-20T16:10:18.249Z,33.50
2019-06-20T16:12:47.510Z,33.70
2019-06-20T16:15:24.098Z,33.80
2019-06-20T16:17:53.574Z,33.30
2019-06-20T16:20:23.113Z,33.20
2019-06-20T16:22:52.488Z,32.80
2019-06-20T16:25:21.846Z,32.50
2019-06-20T16:27:51.388Z,31.70
2019-06-20T16:30:20.943Z,30.80
2019-06-20T16:32:50.194Z,30.10
2019-06-20T16:35:19.775Z,29.80
2019-06-20T16:38:08.309Z,29.90
2019-06-20T16:40:45.916Z,30.20
2019-06-20T16:43:15.134Z,30.50
2019-06-20T16:45:44.823Z,30.50
2019-06-20T16:48:14.108Z,30.50
2019-06-20T16:50:43.378Z,30.40
2019-06-20T16:53:12.541Z,30.10
2019-06-20T16:55:41.741Z,29.90
2019-06-20T16:58:10.940Z,29.70
2019-06-20T17:00:41.646Z,29.70
2019-06-20T17:03:09.997Z,29.80
2019-06-20T17:05:39.181Z,29.90
2019-06-20T17:08:08.493Z,30.00
2019-06-20T17:10:37.683Z,29.90
2019-06-20T17:13:06.951Z,30.00
2019-06-20T17:15:36.172Z,29.90
2019-06-20T17:18:06.455Z,29.90
2019-06-20T17:20:35.753Z,30.10
2019-06-20T17:23:05.138Z,30.00
2019-06-20T17:25:34.397Z,29.90
2019-06-20T17:28:03.976Z,29.70
2019-06-20T17:30:34.908Z,29.60
2019-06-20T17:33:04.318Z,29.50
2019-06-20T17:35:33.849Z,29.20
2019-06-20T17:38:09.488Z,29.10
2019-06-20T17:40:33.135Z,28.80
2019-06-20T17:43:02.232Z,28.60
2019-06-20T17:45:32.304Z,28.50
2019-06-20T17:48:01.407Z,28.50
2019-06-20T17:50:30.540Z,28.40
2019-06-20T17:52:59.696Z,28.30
2019-06-20T17:55:29.244Z,28.30
2019-06-20T17:57:58.426Z,28.20
2019-06-20T18:00:27.962Z,28.10
2019-06-20T18:02:57.135Z,27.90
2019-06-20T18:05:26.393Z,27.80
2019-06-20T18:07:55.553Z,27.70
2019-06-20T18:10:24.830Z,27.70
2019-06-20T18:12:53.946Z,27.60
2019-06-20T18:15:23.846Z,27.60
2019-06-20T18:17:52.926Z,27.50
2019-06-20T18:20:22.229Z,27.40
2019-06-20T18:22:51.355Z,27.30
2019-06-20T18:25:21.291Z,27.30
2019-06-20T18:27:50.432Z,27.20
2019-06-20T18:30:22.618Z,27.10
2019-06-20T18:32:51.765Z,27.10
2019-06-20T18:35:20.938Z,27.10
2019-06-20T18:37:50.091Z,27.00
2019-06-20T18:40:19.377Z,26.80
2019-06-20T18:42:48.592Z,26.70
2019-06-20T18:45:17.845Z,26.70
2019-06-20T18:47:46.968Z,26.70
2019-06-20T18:50:16.199Z,26.60
2019-06-20T18:52:52.111Z,26.60
2019-06-20T18:55:16.269Z,26.50
2019-06-20T18:57:45.437Z,26.60
2019-06-20T19:00:14.894Z,26.70
2019-06-20T19:02:43.999Z,26.50
2019-06-20T19:05:13.650Z,26.50
2019-06-20T19:07:42.855Z,26.40
2019-06-20T19:10:12.633Z,26.30
2019-06-20T19:12:41.815Z,26.30
2019-06-20T19:15:11.861Z,26.20
2019-06-20T19:17:41.088Z,26.20
2019-06-20T19:20:10.782Z,26.00
2019-06-20T19:22:39.938Z,26.00
2019-06-20T19:25:09.711Z,25.90
2019-06-20T19:27:46.009Z,25.70
2019-06-20T19:30:12.057Z,25.70
2019-06-20T19:32:41.319Z,25.60
2019-06-20T19:35:10.874Z,25.50
2019-06-20T19:37:40.204Z,25.50
2019-06-20T19:40:10.658Z,25.50
2019-06-20T19:42:39.844Z,25.70
2019-06-20T19:45:11.285Z,25.70
2019-06-20T19:47:40.785Z,25.70
2019-06-20T19:50:10.465Z,25.80
2019-06-20T19:52:39.953Z,25.80
2019-06-20T19:55:09.898Z,25.70
2019-06-20T19:57:39.308Z,25.60
2019-06-20T20:00:09.550Z,25.50
2019-06-20T20:02:38.840Z,25.50
2019-06-20T20:05:19.112Z,25.40
2019-06-20T20:07:40.918Z,25.30
2019-06-20T20:10:10.504Z,25.30
2019-06-20T20:12:39.690Z,25.20
2019-06-20T20:15:09.869Z,25.20
2019-06-20T20:17:39.068Z,25.20
2019-06-20T20:20:08.511Z,25.10
2019-06-20T20:22:37.822Z,25.10
2019-06-20T20:25:08.742Z,25.10
2019-06-20T20:27:37.280Z,25.10
2019-06-20T20:30:11.202Z,25.10
2019-06-20T20:32:40.964Z,25.10
2019-06-20T20:35:10.256Z,25.10
2019-06-20T20:37:39.544Z,25.10
2019-06-20T20:40:11.936Z,25.10
2019-06-20T20:42:41.102Z,25.10
2019-06-20T20:45:11.771Z,25.10
2019-06-20T20:47:40.999Z,25.00
2019-06-20T20:50:10.972Z,25.00
2019-06-20T20:52:40.154Z,25.00
2019-06-20T20:55:10.375Z,25.00
2019-06-20T20:57:39.729Z,25.00
2019-06-20T21:00:23.977Z,25.00
2019-06-20T21:02:54.685Z,25.00
2019-06-20T21:05:24.030Z,24.90
2019-06-20T21:07:53.325Z,24.80
2019-06-20T21:10:22.467Z,24.70
2019-06-20T21:12:51.618Z,24.60
2019-06-20T21:15:22.375Z,24.50
2019-06-20T21:17:51.657Z,24.30
2019-06-20T21:20:20.939Z,24.30
2019-06-20T21:22:50.069Z,24.20
2019-06-20T21:25:19.349Z,24.20
2019-06-20T21:27:48.491Z,24.10
2019-06-20T21:30:18.280Z,23.90
2019-06-20T21:32:47.469Z,23.80
2019-06-20T21:35:16.965Z,23.70
2019-06-20T21:37:46.067Z,23.60
2019-06-20T21:40:16.614Z,23.60
2019-06-20T21:42:45.722Z,23.50
2019-06-20T21:45:15.224Z,23.50
2019-06-20T21:47:44.370Z,23.50
2019-06-20T21:50:13.738Z,23.70
2019-06-20T21:52:42.942Z,23.80
2019-06-20T21:55:12.595Z,23.90
2019-06-20T21:57:41.748Z,24.10
2019-06-20T22:00:16.678Z,24.20
2019-06-20T22:02:45.888Z,24.00
2019-06-20T22:05:15.276Z,23.90
2019-06-20T22:07:44.402Z,23.80
2019-06-20T22:10:14.073Z,23.80
2019-06-20T22:12:43.277Z,23.80
2019-06-20T22:15:12.643Z,23.80
2019-06-20T22:17:41.824Z,23.80
2019-06-20T22:20:13.102Z,23.80
2019-06-20T22:22:42.343Z,23.90
2019-06-20T22:25:11.895Z,23.90
2019-06-20T22:27:41.045Z,23.80
2019-06-20T22:30:12.002Z,23.80
2019-06-20T22:32:40.463Z,23.70
2019-06-20T22:35:10.018Z,23.70
2019-06-20T22:37:39.352Z,23.60
2019-06-20T22:40:09.901Z,23.60
2019-06-20T22:42:39.131Z,23.50
2019-06-20T22:45:08.993Z,23.50
2019-06-20T22:47:38.208Z,23.50
2019-06-20T22:50:08.055Z,23.40
2019-06-20T22:52:37.226Z,23.30
2019-06-20T22:55:09.821Z,23.30
2019-06-20T22:57:38.958Z,23.30
2019-06-20T23:00:09.754Z,23.30
2019-06-20T23:02:39.031Z,23.30
2019-06-20T23:05:08.922Z,23.30
2019-06-20T23:07:38.199Z,23.10
2019-06-20T23:10:10.982Z,23.00
2019-06-20T23:12:38.928Z,23.10
2019-06-20T23:15:08.994Z,23.00
2019-06-20T23:17:38.223Z,22.90
2019-06-20T23:20:08.470Z,22.80
2019-06-20T23:22:37.690Z,22.80
2019-06-20T23:25:08.352Z,22.80
2019-06-20T23:27:37.497Z,22.70
2019-06-20T23:30:08.279Z,22.70
2019-06-20T23:32:37.484Z,22.70
2019-06-20T23:35:07.128Z,22.60
2019-06-20T23:37:36.468Z,22.60
2019-06-20T23:40:07.166Z,22.50
2019-06-20T23:42:36.445Z,22.50
2019-06-20T23:45:07.506Z,22.60
2019-06-20T23:47:35.860Z,22.50
2019-06-20T23:50:10.292Z,22.60
2019-06-20T23:52:43.625Z,22.50
2019-06-20T23:55:12.814Z,22.30
2019-06-20T23:57:42.025Z,22.40
